createdAt,value
2019-01-03T00:00:54.224Z,4.18
2019-01-03T00:01:54.246Z,4.10
2019-01-03T00:02:54.268Z,4.12
2019-01-03T00:03:54.294Z,4.20
2019-01-03T00:04:54.312Z,4.18
2019-01-03T00:05:54.336Z,4.18
2019-01-03T00:06:54.361Z,4.17
2019-01-03T00:07:54.376Z,4.26
2019-01-03T00:08:54.399Z,4.18
2019-01-03T00:09:54.421Z,4.26
2019-01-03T00:10:54.445Z,4.29
2019-01-03T00:11:54.468Z,4.28
2019-01-03T00:12:54.487Z,4.28
2019-01-03T00:13:54.509Z,4.30
2019-01-03T00:14:54.535Z,4.28
2019-01-03T00:15:54.558Z,4.26
2019-01-03T00:16:54.582Z,4.28
2019-01-03T00:17:54.602Z,4.24
2019-01-03T00:18:54.623Z,4.18
2019-01-03T00:19:54.645Z,4.28
2019-01-03T00:20:54.666Z,4.26
2019-01-03T00:21:54.685Z,4.20
2019-01-03T00:22:54.714Z,4.29
2019-01-03T00:23:54.733Z,4.26
2019-01-03T00:24:54.755Z,4.22
2019-01-03T00:25:54.776Z,4.26
2019-01-03T00:26:54.796Z,4.21
2019-01-03T00:27:54.821Z,4.22
2019-01-03T00:28:54.841Z,4.22
2019-01-03T00:29:54.863Z,4.21
2019-01-03T00:30:54.886Z,4.17
2019-01-03T00:31:54.907Z,4.28
2019-01-03T00:32:54.930Z,4.17
2019-01-03T00:33:54.954Z,4.22
2019-01-03T00:34:54.979Z,4.24
2019-01-03T00:35:54.996Z,4.10
2019-01-03T00:36:55.020Z,4.17
2019-01-03T00:37:55.040Z,4.17
2019-01-03T00:38:55.062Z,4.17
2019-01-03T00:39:55.088Z,4.15
2019-01-03T00:40:55.108Z,4.12
2019-01-03T00:41:55.131Z,4.18
2019-01-03T00:42:55.152Z,4.21
2019-01-03T00:43:55.172Z,4.20
2019-01-03T00:44:55.197Z,4.15
2019-01-03T00:45:55.218Z,4.10
2019-01-03T00:46:55.240Z,4.18
2019-01-03T00:47:55.263Z,4.14
2019-01-03T00:48:55.285Z,4.24
2019-01-03T00:49:55.309Z,4.14
2019-01-03T00:50:55.328Z,4.15
2019-01-03T00:51:55.354Z,4.20
2019-01-03T00:52:55.372Z,4.20
2019-01-03T00:53:55.392Z,4.15
2019-01-03T00:54:55.420Z,4.21
2019-01-03T00:55:55.436Z,4.10
2019-01-03T00:56:55.462Z,4.15
2019-01-03T00:57:55.485Z,4.11
2019-01-03T00:58:55.505Z,4.14
2019-01-03T00:59:55.526Z,4.10
2019-01-03T01:00:55.549Z,4.14
2019-01-03T01:01:55.573Z,4.17
2019-01-03T01:02:55.593Z,4.15
2019-01-03T01:03:55.615Z,4.18
2019-01-03T01:04:55.637Z,4.28
2019-01-03T01:05:55.657Z,4.24
2019-01-03T01:06:55.678Z,4.24
2019-01-03T01:07:55.702Z,4.24
2019-01-03T01:08:55.725Z,4.24
2019-01-03T01:09:55.744Z,4.20
2019-01-03T01:10:55.765Z,4.26
2019-01-03T01:11:55.797Z,4.29
2019-01-03T01:12:55.813Z,4.29
2019-01-03T01:13:55.831Z,4.30
2019-01-03T01:14:55.860Z,4.28
2019-01-03T01:15:55.879Z,4.29
2019-01-03T01:16:55.902Z,4.28
2019-01-03T01:17:55.921Z,4.29
2019-01-03T01:18:55.945Z,4.26
2019-01-03T01:19:55.968Z,4.26
2019-01-03T01:20:55.987Z,4.33
2019-01-03T01:21:56.011Z,4.29
2019-01-03T01:22:56.033Z,4.36
2019-01-03T01:23:56.052Z,4.38
2019-01-03T01:24:56.078Z,4.38
2019-01-03T01:25:56.448Z,4.38
2019-01-03T01:26:56.121Z,4.35
2019-01-03T01:27:56.144Z,4.44
2019-01-03T01:28:56.415Z,4.35
2019-01-03T01:29:56.438Z,4.39
2019-01-03T01:30:56.210Z,4.33
2019-01-03T01:31:56.231Z,4.35
2019-01-03T01:32:56.253Z,4.38
2019-01-03T01:33:56.429Z,4.42
2019-01-03T01:34:56.298Z,4.35
2019-01-03T01:35:56.321Z,4.44
2019-01-03T01:36:56.341Z,4.40
2019-01-03T01:37:56.362Z,4.39
2019-01-03T01:38:56.385Z,4.42
2019-01-03T01:39:56.406Z,4.40
2019-01-03T01:40:56.430Z,4.36
2019-01-03T01:41:56.450Z,4.39
2019-01-03T01:42:56.476Z,4.42
2019-01-03T01:43:56.497Z,4.42
2019-01-03T01:44:56.520Z,4.44
2019-01-03T01:45:56.544Z,4.44
2019-01-03T01:46:56.563Z,4.50
2019-01-03T01:47:56.585Z,4.46
2019-01-03T01:48:56.610Z,4.40
2019-01-03T01:49:56.631Z,4.39
2019-01-03T01:50:56.654Z,4.40
2019-01-03T01:51:56.681Z,4.33
2019-01-03T01:52:56.698Z,4.46
2019-01-03T01:53:56.720Z,4.42
2019-01-03T01:54:56.740Z,4.44
2019-01-03T01:55:56.766Z,4.50
2019-01-03T01:56:56.786Z,4.44
2019-01-03T01:57:56.809Z,4.38
2019-01-03T01:58:56.831Z,4.42
2019-01-03T01:59:56.854Z,4.44
2019-01-03T02:00:56.874Z,4.40
2019-01-03T02:01:56.900Z,4.39
2019-01-03T02:02:56.921Z,4.44
2019-01-03T02:03:56.940Z,4.44
2019-01-03T02:04:57.062Z,4.40
2019-01-03T02:05:56.984Z,4.42
2019-01-03T02:06:57.006Z,4.35
2019-01-03T02:07:57.032Z,4.48
2019-01-03T02:08:57.056Z,4.44
2019-01-03T02:09:57.073Z,4.42
2019-01-03T02:10:57.101Z,4.38
2019-01-03T02:11:57.118Z,4.35
2019-01-03T02:12:57.143Z,4.42
2019-01-03T02:13:57.164Z,4.44
2019-01-03T02:14:57.186Z,4.42
2019-01-03T02:15:57.213Z,4.39
2019-01-03T02:16:57.232Z,4.42
2019-01-03T02:17:57.253Z,4.44
2019-01-03T02:18:57.273Z,4.44
2019-01-03T02:19:57.298Z,4.39
2019-01-03T02:20:57.322Z,4.38
2019-01-03T02:21:57.340Z,4.44
2019-01-03T02:22:57.364Z,4.44
2019-01-03T02:23:57.384Z,4.38
2019-01-03T02:24:57.409Z,4.51
2019-01-03T02:25:57.429Z,4.53
2019-01-03T02:26:57.454Z,4.44
2019-01-03T02:27:57.473Z,4.54
2019-01-03T02:28:57.499Z,4.40
2019-01-03T02:29:57.520Z,4.47
2019-01-03T02:30:57.542Z,4.48
2019-01-03T02:31:57.563Z,4.53
2019-01-03T02:32:57.589Z,4.53
2019-01-03T02:33:57.609Z,4.54
2019-01-03T02:34:57.628Z,4.53
2019-01-03T02:35:57.657Z,4.50
2019-01-03T02:36:57.678Z,4.53
2019-01-03T02:37:57.698Z,4.60
2019-01-03T02:38:57.717Z,4.51
2019-01-03T02:39:57.739Z,4.56
2019-01-03T02:40:57.766Z,4.50
2019-01-03T02:41:57.788Z,4.54
2019-01-03T02:42:57.809Z,4.48
2019-01-03T02:43:57.832Z,4.48
2019-01-03T02:44:57.855Z,4.50
2019-01-03T02:45:57.876Z,4.54
2019-01-03T02:46:57.897Z,4.46
2019-01-03T02:47:57.920Z,4.50
2019-01-03T02:48:57.943Z,4.61
2019-01-03T02:49:57.964Z,4.60
2019-01-03T02:50:57.987Z,4.57
2019-01-03T02:51:58.010Z,4.61
2019-01-03T02:52:58.032Z,4.57
2019-01-03T02:53:58.056Z,4.60
2019-01-03T02:54:58.079Z,4.57
2019-01-03T02:55:58.099Z,4.56
2019-01-03T02:56:58.122Z,4.56
2019-01-03T02:57:58.143Z,4.57
2019-01-03T02:58:58.168Z,4.58
2019-01-03T02:59:58.188Z,4.60
2019-01-03T03:00:58.213Z,4.57
2019-01-03T03:01:58.234Z,4.58
2019-01-03T03:02:58.257Z,4.54
2019-01-03T03:03:58.354Z,4.60
2019-01-03T03:04:58.302Z,4.60
2019-01-03T03:05:58.325Z,4.58
2019-01-03T03:06:58.344Z,4.57
2019-01-03T03:07:58.365Z,4.60
2019-01-03T03:08:58.388Z,4.58
2019-01-03T03:09:58.412Z,4.56
2019-01-03T03:10:58.437Z,4.60
2019-01-03T03:11:58.454Z,4.60
2019-01-03T03:12:58.479Z,4.58
2019-01-03T03:13:58.498Z,4.64
2019-01-03T03:14:58.525Z,4.64
2019-01-03T03:15:58.548Z,4.54
2019-01-03T03:16:58.568Z,4.56
2019-01-03T03:17:58.589Z,4.64
2019-01-03T03:18:58.612Z,4.56
2019-01-03T03:19:58.635Z,4.57
2019-01-03T03:20:58.658Z,4.53
2019-01-03T03:21:58.688Z,4.57
2019-01-03T03:22:58.700Z,4.58
2019-01-03T03:23:58.725Z,4.56
2019-01-03T03:24:58.747Z,4.57
2019-01-03T03:25:58.767Z,4.58
2019-01-03T03:26:58.790Z,4.57
2019-01-03T03:27:58.813Z,4.61
2019-01-03T03:28:58.838Z,4.58
2019-01-03T03:29:58.864Z,4.61
2019-01-03T03:30:58.881Z,4.58
2019-01-03T03:31:58.905Z,4.50
2019-01-03T03:32:58.927Z,4.54
2019-01-03T03:33:58.943Z,4.58
2019-01-03T03:34:58.969Z,4.58
2019-01-03T03:35:58.989Z,4.57
2019-01-03T03:36:59.014Z,4.56
2019-01-03T03:37:59.035Z,4.57
2019-01-03T03:38:59.059Z,4.56
2019-01-03T03:39:59.079Z,4.56
2019-01-03T03:40:59.504Z,4.65
2019-01-03T03:41:59.125Z,4.58
2019-01-03T03:42:59.149Z,4.57
2019-01-03T03:43:59.168Z,4.64
2019-01-03T03:44:59.196Z,4.74
2019-01-03T03:45:59.465Z,4.66
2019-01-03T03:46:59.234Z,4.69
2019-01-03T03:47:59.258Z,4.71
2019-01-03T03:48:59.292Z,4.66
2019-01-03T03:49:59.309Z,4.64
2019-01-03T03:50:59.426Z,4.68
2019-01-03T03:51:59.349Z,4.65
2019-01-03T03:52:59.369Z,4.68
2019-01-03T03:53:59.393Z,4.74
2019-01-03T03:54:59.425Z,4.75
2019-01-03T03:55:59.438Z,4.71
2019-01-03T03:56:59.459Z,4.64
2019-01-03T03:57:59.479Z,4.72
2019-01-03T03:58:59.504Z,4.71
2019-01-03T03:59:59.528Z,4.72
2019-01-03T04:00:59.548Z,4.72
2019-01-03T04:01:59.575Z,4.78
2019-01-03T04:02:59.595Z,4.74
2019-01-03T04:03:59.618Z,4.78
2019-01-03T04:04:59.642Z,4.72
2019-01-03T04:05:59.662Z,4.74
2019-01-03T04:06:59.693Z,4.85
2019-01-03T04:07:59.704Z,4.83
2019-01-03T04:08:59.730Z,4.71
2019-01-03T04:09:59.750Z,4.74
2019-01-03T04:10:59.773Z,4.69
2019-01-03T04:11:59.798Z,4.74
2019-01-03T04:12:59.820Z,4.72
2019-01-03T04:13:59.842Z,4.75
2019-01-03T04:14:59.864Z,4.75
2019-01-03T04:15:59.885Z,4.69
2019-01-03T04:16:59.910Z,4.69
2019-01-03T04:17:59.937Z,4.74
2019-01-03T04:18:59.961Z,4.71
2019-01-03T04:19:59.976Z,4.66
2019-01-03T04:20:59.996Z,4.66
2019-01-03T04:22:00.021Z,4.72
2019-01-03T04:23:00.142Z,4.68
2019-01-03T04:24:00.163Z,4.69
2019-01-03T04:25:00.314Z,4.68
2019-01-03T04:26:00.111Z,4.66
2019-01-03T04:27:00.137Z,4.71
2019-01-03T04:28:00.155Z,4.66
2019-01-03T04:29:00.179Z,4.69
2019-01-03T04:30:00.206Z,4.71
2019-01-03T04:31:00.224Z,4.71
2019-01-03T04:32:00.246Z,4.68
2019-01-03T04:33:00.266Z,4.68
2019-01-03T04:34:00.287Z,4.69
2019-01-03T04:35:00.316Z,4.69
2019-01-03T04:36:00.333Z,4.75
2019-01-03T04:37:00.358Z,4.78
2019-01-03T04:38:00.383Z,4.72
2019-01-03T04:39:00.403Z,4.76
2019-01-03T04:40:00.421Z,4.74
2019-01-03T04:41:00.443Z,4.72
2019-01-03T04:42:00.466Z,4.76
2019-01-03T04:43:00.496Z,4.75
2019-01-03T04:44:00.511Z,4.69
2019-01-03T04:45:00.538Z,4.69
2019-01-03T04:46:00.562Z,4.75
2019-01-03T04:47:00.579Z,4.66
2019-01-03T04:48:00.601Z,4.74
2019-01-03T04:49:00.626Z,4.66
2019-01-03T04:50:00.647Z,4.68
2019-01-03T04:51:00.671Z,4.68
2019-01-03T04:52:00.689Z,4.65
2019-01-03T04:53:00.712Z,4.71
2019-01-03T04:54:00.735Z,4.71
2019-01-03T04:55:00.767Z,4.72
2019-01-03T04:56:00.786Z,4.68
2019-01-03T04:57:00.801Z,4.68
2019-01-03T04:58:00.827Z,4.65
2019-01-03T04:59:00.847Z,4.69
2019-01-03T05:00:00.873Z,4.69
2019-01-03T05:01:00.891Z,4.71
2019-01-03T05:02:00.912Z,4.72
2019-01-03T05:03:00.939Z,4.64
2019-01-03T05:04:00.957Z,4.69
2019-01-03T05:05:00.984Z,4.58
2019-01-03T05:06:01.008Z,4.69
2019-01-03T05:07:01.024Z,4.75
2019-01-03T05:08:01.051Z,4.64
2019-01-03T05:09:01.072Z,4.66
2019-01-03T05:10:01.090Z,4.69
2019-01-03T05:11:01.118Z,4.69
2019-01-03T05:12:01.141Z,4.66
2019-01-03T05:13:01.161Z,4.68
2019-01-03T05:14:01.181Z,4.69
2019-01-03T05:15:01.203Z,4.66
2019-01-03T05:16:01.224Z,4.66
2019-01-03T05:17:01.255Z,4.74
2019-01-03T05:18:01.273Z,4.65
2019-01-03T05:19:01.296Z,4.68
2019-01-03T05:20:01.319Z,4.69
2019-01-03T05:21:01.336Z,4.71
2019-01-03T05:22:01.365Z,4.74
2019-01-03T05:23:01.389Z,4.74
2019-01-03T05:24:01.405Z,4.75
2019-01-03T05:25:01.427Z,4.64
2019-01-03T05:26:01.448Z,4.69
2019-01-03T05:27:01.470Z,4.66
2019-01-03T05:28:01.498Z,4.68
2019-01-03T05:29:01.524Z,4.65
2019-01-03T05:30:01.537Z,4.71
2019-01-03T05:31:01.560Z,4.74
2019-01-03T05:32:01.583Z,4.71
2019-01-03T05:33:01.605Z,4.64
2019-01-03T05:34:01.629Z,4.69
2019-01-03T05:35:01.656Z,4.69
2019-01-03T05:36:01.672Z,4.60
2019-01-03T05:37:01.700Z,4.65
2019-01-03T05:38:01.713Z,4.58
2019-01-03T05:39:01.741Z,4.57
2019-01-03T05:40:01.781Z,4.69
2019-01-03T05:41:01.783Z,4.61
2019-01-03T05:42:01.805Z,4.60
2019-01-03T05:43:01.827Z,4.65
2019-01-03T05:44:01.854Z,4.58
2019-01-03T05:45:01.868Z,4.57
2019-01-03T05:46:01.891Z,4.57
2019-01-03T05:47:01.914Z,4.57
2019-01-03T05:48:01.936Z,4.57
2019-01-03T05:49:01.959Z,4.58
2019-01-03T05:50:01.987Z,4.58
2019-01-03T05:51:02.002Z,4.57
2019-01-03T05:52:02.029Z,4.58
2019-01-03T05:53:02.049Z,4.64
2019-01-03T05:54:02.074Z,4.57
2019-01-03T05:55:02.104Z,4.60
2019-01-03T05:56:02.118Z,4.64
2019-01-03T05:57:02.138Z,4.57
2019-01-03T05:58:02.160Z,4.64
2019-01-03T05:59:02.184Z,4.51
2019-01-03T06:00:02.208Z,4.58
2019-01-03T06:01:02.226Z,4.56
2019-01-03T06:02:02.249Z,4.57
2019-01-03T06:03:02.273Z,4.56
2019-01-03T06:04:02.303Z,4.58
2019-01-03T06:05:02.317Z,4.60
2019-01-03T06:06:02.338Z,4.56
2019-01-03T06:07:02.360Z,4.58
2019-01-03T06:08:02.381Z,4.56
2019-01-03T06:09:02.446Z,4.56
2019-01-03T06:10:02.426Z,4.57
2019-01-03T06:11:02.448Z,4.60
2019-01-03T06:12:02.469Z,4.60
2019-01-03T06:13:02.495Z,4.58
2019-01-03T06:14:02.520Z,4.60
2019-01-03T06:15:03.620Z,4.58
2019-01-03T06:16:02.562Z,4.57
2019-01-03T06:17:02.581Z,4.58
2019-01-03T06:18:02.604Z,4.56
2019-01-03T06:19:02.625Z,4.57
2019-01-03T06:20:02.648Z,4.57
2019-01-03T06:21:03.930Z,4.57
2019-01-03T06:22:02.692Z,4.54
2019-01-03T06:23:02.715Z,4.57
2019-01-03T06:24:02.740Z,4.57
2019-01-03T06:25:02.762Z,4.58
2019-01-03T06:26:02.782Z,4.69
2019-01-03T06:27:02.804Z,4.58
2019-01-03T06:28:02.829Z,4.56
2019-01-03T06:29:02.851Z,4.58
2019-01-03T06:30:02.871Z,4.58
2019-01-03T06:31:02.897Z,4.56
2019-01-03T06:32:02.918Z,4.60
2019-01-03T06:33:03.043Z,4.58
2019-01-03T06:34:02.963Z,4.74
2019-01-03T06:35:02.987Z,4.69
2019-01-03T06:36:03.013Z,4.71
2019-01-03T06:37:03.028Z,4.60
2019-01-03T06:38:03.048Z,4.71
2019-01-03T06:39:03.072Z,4.75
2019-01-03T06:40:03.112Z,4.66
2019-01-03T06:41:03.121Z,4.75
2019-01-03T06:42:03.139Z,4.68
2019-01-03T06:43:03.162Z,4.61
2019-01-03T06:44:03.186Z,4.58
2019-01-03T06:45:03.209Z,4.60
2019-01-03T06:46:03.228Z,4.66
2019-01-03T06:47:03.251Z,4.65
2019-01-03T06:48:03.273Z,4.60
2019-01-03T06:49:03.299Z,4.60
2019-01-03T06:50:03.325Z,4.69
2019-01-03T06:51:03.344Z,4.58
2019-01-03T06:52:03.363Z,4.57
2019-01-03T06:53:03.385Z,4.57
2019-01-03T06:54:03.409Z,4.60
2019-01-03T06:55:03.429Z,4.54
2019-01-03T06:56:03.452Z,4.58
2019-01-03T06:57:03.516Z,4.54
2019-01-03T06:58:03.496Z,4.57
2019-01-03T06:59:03.521Z,4.57
2019-01-03T07:00:03.546Z,4.60
2019-01-03T07:01:03.566Z,4.65
2019-01-03T07:02:03.584Z,4.61
2019-01-03T07:03:03.607Z,4.60
2019-01-03T07:04:03.630Z,4.69
2019-01-03T07:05:03.656Z,4.69
2019-01-03T07:06:03.679Z,4.64
2019-01-03T07:07:03.696Z,4.69
2019-01-03T07:08:03.721Z,4.69
2019-01-03T07:09:03.742Z,4.65
2019-01-03T07:10:03.766Z,4.64
2019-01-03T07:11:03.788Z,4.65
2019-01-03T07:12:03.809Z,4.68
2019-01-03T07:13:03.832Z,4.65
2019-01-03T07:14:03.855Z,4.69
2019-01-03T07:15:03.877Z,4.66
2019-01-03T07:16:03.898Z,4.69
2019-01-03T07:17:03.920Z,4.58
2019-01-03T07:18:03.944Z,4.61
2019-01-03T07:19:03.964Z,4.56
2019-01-03T07:20:03.987Z,4.57
2019-01-03T07:21:04.011Z,4.58
2019-01-03T07:22:04.033Z,4.57
2019-01-03T07:23:04.056Z,4.56
2019-01-03T07:24:04.082Z,4.54
2019-01-03T07:25:04.104Z,4.57
2019-01-03T07:26:04.123Z,4.69
2019-01-03T07:27:04.145Z,4.60
2019-01-03T07:28:04.168Z,4.58
2019-01-03T07:29:04.190Z,4.57
2019-01-03T07:30:04.216Z,4.56
2019-01-03T07:31:04.230Z,4.61
2019-01-03T07:32:04.254Z,4.69
2019-01-03T07:33:04.279Z,4.69
2019-01-03T07:34:04.301Z,4.69
2019-01-03T07:35:04.321Z,4.68
2019-01-03T07:36:04.344Z,4.69
2019-01-03T07:37:04.367Z,4.66
2019-01-03T07:38:04.388Z,4.64
2019-01-03T07:39:04.414Z,4.68
2019-01-03T07:40:04.434Z,4.68
2019-01-03T07:41:04.461Z,4.68
2019-01-03T07:42:04.484Z,4.64
2019-01-03T07:43:04.507Z,4.65
2019-01-03T07:44:04.525Z,4.74
2019-01-03T07:45:04.545Z,4.72
2019-01-03T07:46:04.567Z,4.74
2019-01-03T07:47:04.593Z,4.69
2019-01-03T07:48:05.741Z,4.74
2019-01-03T07:49:04.636Z,4.76
2019-01-03T07:50:04.658Z,4.85
2019-01-03T07:51:04.680Z,4.76
2019-01-03T07:52:04.704Z,4.83
2019-01-03T07:53:04.723Z,4.85
2019-01-03T07:54:04.749Z,4.92
2019-01-03T07:55:04.771Z,4.85
2019-01-03T07:56:04.791Z,4.87
2019-01-03T07:57:04.813Z,4.88
2019-01-03T07:58:04.841Z,4.87
2019-01-03T07:59:04.860Z,4.87
2019-01-03T08:00:04.884Z,4.87
2019-01-03T08:01:04.906Z,4.94
2019-01-03T08:02:04.926Z,4.87
2019-01-03T08:03:04.949Z,4.92
2019-01-03T08:04:04.972Z,4.90
2019-01-03T08:05:04.995Z,4.90
2019-01-03T08:06:05.017Z,4.94
2019-01-03T08:07:05.043Z,4.94
2019-01-03T08:08:05.062Z,4.92
2019-01-03T08:09:05.085Z,4.87
2019-01-03T08:10:05.106Z,4.90
2019-01-03T08:11:05.129Z,4.87
2019-01-03T08:12:05.153Z,4.92
2019-01-03T08:13:05.173Z,4.90
2019-01-03T08:14:05.194Z,4.90
2019-01-03T08:15:05.219Z,4.94
2019-01-03T08:16:05.240Z,4.88
2019-01-03T08:17:05.268Z,4.78
2019-01-03T08:18:05.286Z,4.85
2019-01-03T08:19:05.307Z,4.91
2019-01-03T08:20:05.331Z,4.85
2019-01-03T08:21:05.354Z,4.85
2019-01-03T08:22:05.374Z,4.79
2019-01-03T08:23:05.399Z,4.78
2019-01-03T08:24:05.421Z,4.78
2019-01-03T08:25:05.444Z,4.84
2019-01-03T08:26:05.466Z,4.90
2019-01-03T08:27:05.488Z,4.88
2019-01-03T08:28:05.512Z,4.92
2019-01-03T08:29:05.535Z,4.91
2019-01-03T08:30:05.556Z,4.85
2019-01-03T08:31:05.578Z,4.88
2019-01-03T08:32:05.601Z,4.87
2019-01-03T08:33:05.622Z,4.85
2019-01-03T08:34:05.644Z,4.88
2019-01-03T08:35:05.668Z,4.84
2019-01-03T08:36:05.692Z,4.92
2019-01-03T08:37:05.712Z,4.90
2019-01-03T08:38:05.736Z,4.88
2019-01-03T08:39:05.758Z,4.88
2019-01-03T08:40:05.780Z,4.92
2019-01-03T08:41:05.803Z,4.85
2019-01-03T08:42:05.830Z,4.92
2019-01-03T08:43:05.849Z,4.87
2019-01-03T08:44:05.872Z,4.97
2019-01-03T08:45:05.894Z,4.97
2019-01-03T08:46:05.914Z,4.97
2019-01-03T08:47:05.935Z,5.02
2019-01-03T08:48:05.959Z,4.97
2019-01-03T08:49:05.984Z,5.10
2019-01-03T08:50:06.005Z,5.15
2019-01-03T08:51:06.029Z,5.13
2019-01-03T08:52:06.051Z,5.23
2019-01-03T08:53:06.075Z,5.20
2019-01-03T08:54:06.093Z,5.23
2019-01-03T08:55:06.118Z,5.28
2019-01-03T08:56:06.146Z,5.24
2019-01-03T08:57:06.163Z,5.30
2019-01-03T08:58:06.183Z,5.33
2019-01-03T08:59:06.211Z,5.30
2019-01-03T09:00:06.230Z,5.36
2019-01-03T09:01:06.255Z,5.34
2019-01-03T09:02:06.275Z,5.26
2019-01-03T09:03:06.298Z,5.20
2019-01-03T09:04:06.322Z,5.23
2019-01-03T09:05:06.346Z,5.21
2019-01-03T09:06:06.370Z,5.30
2019-01-03T09:07:06.388Z,5.24
2019-01-03T09:08:06.411Z,5.21
2019-01-03T09:09:06.436Z,5.23
2019-01-03T09:10:06.458Z,5.28
2019-01-03T09:11:06.478Z,5.28
2019-01-03T09:12:06.504Z,5.24
2019-01-03T09:13:06.528Z,5.24
2019-01-03T09:14:06.549Z,5.23
2019-01-03T09:15:06.570Z,5.23
2019-01-03T09:16:06.593Z,5.20
2019-01-03T09:17:06.617Z,5.24
2019-01-03T09:18:09.701Z,5.30
2019-01-03T09:19:06.661Z,5.30
2019-01-03T09:20:06.684Z,5.31
2019-01-03T09:21:06.709Z,5.39
2019-01-03T09:22:06.731Z,5.42
2019-01-03T09:23:06.751Z,5.34
2019-01-03T09:24:06.775Z,5.30
2019-01-03T09:25:06.799Z,5.31
2019-01-03T09:26:06.822Z,5.42
2019-01-03T09:27:12.249Z,5.31
2019-01-03T09:28:06.865Z,5.36
2019-01-03T09:29:06.891Z,5.31
2019-01-03T09:30:06.916Z,5.37
2019-01-03T09:31:06.934Z,5.44
2019-01-03T09:32:06.957Z,5.54
2019-01-03T09:33:06.981Z,5.52
2019-01-03T09:34:07.003Z,5.48
2019-01-03T09:35:07.028Z,5.67
2019-01-03T09:36:07.057Z,5.98
2019-01-03T09:37:07.074Z,6.98
2019-01-03T09:38:07.094Z,6.62
2019-01-03T09:39:07.119Z,6.42
2019-01-03T09:40:07.143Z,6.46
2019-01-03T09:41:07.166Z,6.33
2019-01-03T09:42:07.188Z,6.31
2019-01-03T09:43:07.210Z,6.21
2019-01-03T09:44:07.237Z,6.13
2019-01-03T09:45:07.261Z,6.24
2019-01-03T09:46:07.283Z,6.06
2019-01-03T09:47:07.307Z,6.02
2019-01-03T09:48:07.329Z,5.98
2019-01-03T09:49:07.353Z,5.92
2019-01-03T09:50:07.377Z,6.06
2019-01-03T09:51:07.401Z,6.00
2019-01-03T09:52:07.424Z,5.92
2019-01-03T09:53:07.450Z,5.91
2019-01-03T09:54:07.473Z,5.84
2019-01-03T09:55:07.497Z,5.84
2019-01-03T09:56:07.518Z,5.80
2019-01-03T09:57:07.542Z,5.84
2019-01-03T09:58:07.567Z,5.82
2019-01-03T09:59:07.589Z,5.88
2019-01-03T10:00:07.614Z,5.84
2019-01-03T10:01:07.639Z,5.87
2019-01-03T10:02:07.660Z,5.70
2019-01-03T10:03:07.685Z,5.80
2019-01-03T10:04:07.712Z,5.60
2019-01-03T10:05:07.732Z,5.66
2019-01-03T10:06:07.756Z,5.62
2019-01-03T10:07:07.780Z,5.67
2019-01-03T10:08:07.806Z,5.64
2019-01-03T10:09:07.826Z,5.59
2019-01-03T10:10:07.848Z,5.59
2019-01-03T10:11:07.875Z,5.72
2019-01-03T10:12:07.898Z,5.69
2019-01-03T10:13:07.920Z,5.72
2019-01-03T10:14:07.945Z,5.72
2019-01-03T10:15:07.968Z,5.70
2019-01-03T10:16:07.990Z,5.84
2019-01-03T10:17:08.016Z,5.81
2019-01-03T10:18:08.036Z,5.81
2019-01-03T10:19:08.059Z,5.81
2019-01-03T10:20:08.088Z,5.84
2019-01-03T10:21:08.107Z,5.84
2019-01-03T10:22:08.129Z,5.75
2019-01-03T10:23:08.156Z,5.77
2019-01-03T10:24:08.176Z,5.70
2019-01-03T10:25:08.202Z,5.75
2019-01-03T10:26:08.224Z,5.75
2019-01-03T10:27:08.247Z,5.80
2019-01-03T10:28:08.270Z,5.82
2019-01-03T10:29:08.295Z,5.89
2019-01-03T10:30:08.317Z,5.89
2019-01-03T10:31:08.343Z,5.95
2019-01-03T10:32:08.369Z,5.92
2019-01-03T10:33:08.394Z,6.02
2019-01-03T10:34:08.413Z,5.87
2019-01-03T10:35:08.437Z,5.89
2019-01-03T10:36:08.456Z,5.84
2019-01-03T10:37:08.482Z,5.96
2019-01-03T10:38:08.502Z,5.88
2019-01-03T10:39:08.528Z,5.82
2019-01-03T10:40:08.551Z,5.88
2019-01-03T10:41:08.573Z,5.82
2019-01-03T10:42:08.596Z,5.84
2019-01-03T10:43:08.619Z,5.92
2019-01-03T10:44:08.645Z,5.89
2019-01-03T10:45:08.667Z,5.92
2019-01-03T10:46:08.688Z,5.95
2019-01-03T10:47:08.712Z,5.99
2019-01-03T10:48:08.736Z,6.06
2019-01-03T10:49:08.761Z,5.92
2019-01-03T10:50:08.788Z,6.06
2019-01-03T10:51:08.806Z,6.03
2019-01-03T10:52:08.832Z,5.92
2019-01-03T10:53:08.855Z,5.98
2019-01-03T10:54:08.876Z,6.05
2019-01-03T10:55:08.901Z,6.02
2019-01-03T10:56:08.922Z,6.14
2019-01-03T10:57:08.946Z,6.06
2019-01-03T10:58:08.970Z,6.15
2019-01-03T10:59:08.995Z,6.25
2019-01-03T11:00:09.018Z,6.17
2019-01-03T11:01:09.039Z,6.13
2019-01-03T11:02:09.062Z,6.10
2019-01-03T11:03:09.085Z,6.21
2019-01-03T11:04:09.109Z,6.14
2019-01-03T11:05:09.138Z,6.06
2019-01-03T11:06:09.155Z,6.14
2019-01-03T11:07:09.181Z,6.02
2019-01-03T11:08:09.206Z,5.99
2019-01-03T11:09:09.227Z,5.98
2019-01-03T11:10:09.251Z,5.95
2019-01-03T11:11:09.272Z,5.89
2019-01-03T11:12:09.298Z,5.92
2019-01-03T11:13:09.321Z,5.91
2019-01-03T11:14:09.344Z,5.89
2019-01-03T11:15:09.371Z,5.99
2019-01-03T11:16:09.389Z,5.95
2019-01-03T11:17:09.413Z,6.05
2019-01-03T11:18:09.437Z,6.09
2019-01-03T11:19:09.461Z,6.00
2019-01-03T11:20:09.485Z,5.99
2019-01-03T11:21:09.510Z,5.89
2019-01-03T11:22:09.532Z,5.88
2019-01-03T11:23:09.554Z,6.07
2019-01-03T11:24:09.578Z,6.10
2019-01-03T11:25:09.600Z,6.14
2019-01-03T11:26:09.622Z,6.09
2019-01-03T11:27:09.651Z,6.13
2019-01-03T11:28:09.669Z,6.15
2019-01-03T11:29:09.695Z,6.05
2019-01-03T11:30:09.719Z,6.07
2019-01-03T11:31:09.744Z,6.17
2019-01-03T11:32:09.764Z,6.03
2019-01-03T11:33:09.786Z,6.02
2019-01-03T11:34:09.811Z,6.07
2019-01-03T11:35:09.835Z,6.03
2019-01-03T11:36:09.856Z,6.13
2019-01-03T11:37:09.880Z,6.10
2019-01-03T11:38:09.902Z,6.03
2019-01-03T11:39:09.928Z,6.03
2019-01-03T11:40:09.950Z,6.03
2019-01-03T11:41:09.973Z,5.95
2019-01-03T11:42:09.997Z,5.92
2019-01-03T11:43:10.022Z,6.00
2019-01-03T11:44:10.042Z,6.07
2019-01-03T11:45:10.071Z,6.21
2019-01-03T11:46:10.089Z,6.20
2019-01-03T11:47:10.113Z,6.36
2019-01-03T11:48:10.136Z,6.36
2019-01-03T11:49:10.160Z,6.42
2019-01-03T11:50:10.182Z,6.72
2019-01-03T11:51:10.210Z,6.80
2019-01-03T11:52:10.718Z,6.83
2019-01-03T11:53:10.253Z,6.83
2019-01-03T11:54:10.282Z,6.80
2019-01-03T11:55:10.304Z,6.68
2019-01-03T11:56:10.325Z,6.61
2019-01-03T11:57:10.348Z,6.67
2019-01-03T11:58:11.698Z,6.57
2019-01-03T11:59:10.394Z,6.46
2019-01-03T12:00:10.419Z,6.29
2019-01-03T12:01:10.442Z,6.26
2019-01-03T12:02:10.466Z,6.24
2019-01-03T12:03:10.492Z,6.37
2019-01-03T12:04:10.513Z,6.28
2019-01-03T12:05:10.537Z,6.21
2019-01-03T12:06:10.566Z,6.25
2019-01-03T12:07:10.583Z,6.25
2019-01-03T12:08:10.609Z,6.28
2019-01-03T12:09:10.631Z,6.33
2019-01-03T12:10:10.653Z,6.31
2019-01-03T12:11:10.679Z,6.24
2019-01-03T12:12:10.712Z,6.31
2019-01-03T12:13:10.727Z,6.33
2019-01-03T12:14:10.749Z,6.33
2019-01-03T12:15:10.778Z,6.25
2019-01-03T12:16:10.795Z,6.29
2019-01-03T12:17:10.821Z,6.14
2019-01-03T12:18:10.843Z,6.21
2019-01-03T12:19:10.867Z,6.18
2019-01-03T12:20:10.889Z,6.21
2019-01-03T12:21:10.912Z,6.21
2019-01-03T12:22:10.940Z,6.24
2019-01-03T12:23:10.960Z,6.31
2019-01-03T12:24:10.989Z,6.21
2019-01-03T12:25:11.008Z,6.29
2019-01-03T12:26:11.033Z,6.37
2019-01-03T12:27:11.054Z,6.42
2019-01-03T12:28:11.076Z,6.49
2019-01-03T12:29:11.100Z,6.52
2019-01-03T12:30:11.124Z,6.47
2019-01-03T12:31:11.145Z,6.43
2019-01-03T12:32:11.171Z,6.46
2019-01-03T12:33:11.196Z,6.44
2019-01-03T12:34:11.216Z,6.49
2019-01-03T12:35:11.247Z,6.54
2019-01-03T12:36:11.265Z,6.52
2019-01-03T12:37:11.287Z,6.34
2019-01-03T12:38:11.312Z,6.42
2019-01-03T12:39:11.333Z,6.37
2019-01-03T12:40:11.356Z,6.37
2019-01-03T12:41:11.386Z,6.43
2019-01-03T12:42:11.405Z,6.49
2019-01-03T12:43:11.428Z,6.62
2019-01-03T12:44:11.452Z,6.73
2019-01-03T12:45:11.476Z,6.68
2019-01-03T12:46:11.499Z,6.60
2019-01-03T12:47:11.522Z,6.75
2019-01-03T12:48:11.546Z,6.75
2019-01-03T12:49:11.570Z,6.78
2019-01-03T12:50:11.593Z,6.73
2019-01-03T12:51:11.613Z,6.72
2019-01-03T12:52:11.639Z,6.79
2019-01-03T12:53:11.663Z,6.85
2019-01-03T12:54:11.685Z,6.75
2019-01-03T12:55:11.707Z,6.75
2019-01-03T12:56:11.733Z,6.80
2019-01-03T12:57:11.757Z,6.76
2019-01-03T12:58:11.778Z,6.68
2019-01-03T12:59:11.801Z,6.72
2019-01-03T13:00:11.825Z,6.62
2019-01-03T13:01:11.852Z,6.60
2019-01-03T13:02:11.873Z,6.47
2019-01-03T13:03:11.896Z,6.43
2019-01-03T13:04:11.921Z,6.49
2019-01-03T13:05:11.945Z,6.39
2019-01-03T13:06:11.970Z,6.33
2019-01-03T13:07:11.991Z,6.34
2019-01-03T13:08:12.013Z,6.40
2019-01-03T13:09:12.037Z,6.37
2019-01-03T13:10:12.060Z,6.40
2019-01-03T13:11:12.086Z,6.44
2019-01-03T13:12:12.109Z,6.47
2019-01-03T13:13:12.131Z,6.51
2019-01-03T13:14:12.155Z,6.51
2019-01-03T13:15:12.179Z,6.54
2019-01-03T13:16:12.201Z,6.54
2019-01-03T13:17:12.227Z,6.60
2019-01-03T13:18:12.247Z,6.61
2019-01-03T13:19:12.271Z,6.57